Friday, May 6, 2016, 3:18 AM EDT
Back to Local

KORE, Orange, Orange Municipal Airport

Location: Orange, MA, United States Lat: 42.572
Local Time: 3:18 AM EDT ( 7:18 GMT) Lon: -72.278
Time Zone: US/Eastern Elev: 554 ft

Show me the last for .
Show Coded

Time T Td Feel RH Dir Speed Gust Alt SLP Vis Weather Sky Remarks
2016-05-06 02:52 46 44 - 92 - Calm - 29.70 29.70 10 OVC028 None
2016-05-06 01:52 47 43 45 86 350° 5 - 29.69 29.70 10 OVC027 6-hr Precip Total (2am): 0.08"
6-hr Min Temp (2am): 46.0°F
6-hr Max Temp (2am): 46.9°F
2016-05-06 01:25 47 43 45 86 330° 5 - 29.69 - 10 OVC029 None
2016-05-06 01:03 47 43 44 86 20° 6 - 29.68 - 10 OVC030 None
2016-05-06 00:52 47 43 44 86 20° 7 - 29.69 29.69 10 OVC029 1-hr Precip Total: Trace
24-hr Min Temp (1am): 42.1°F
24-hr Max Temp (1am): 51.1°F
2016-05-06 00:21 46 43 42 88 30° 7 - 29.70 - 10 OVC030 1-hr Precip Total: Trace
2016-05-05 23:52 47 43 45 86 20° 5 - 29.71 29.71 10 -RA BKN021 OVC027 1-hr Precip Total: Trace
2016-05-05 22:52 46 44 43 92 350° 6 - 29.72 29.73 10 OVC022 1-hr Precip Total: 0.02"
6-hr Precip Total (11pm): 0.08"
2016-05-05 21:52 46 44 42 92 360° 7 - 29.72 29.73 8 -RA SCT016 OVC021 1-hr Precip Total: 0.04"
2016-05-05 21:48 46 45 44 93 350° 6 - 29.72 - 8 -RA BKN016 OVC021 1-hr Precip Total: 0.04"
2016-05-05 20:52 47 44 44 89 360° 7 - 29.72 29.72 8 -RA OVC013 1-hr Precip Total: 0.02"
2016-05-05 20:05 47 43 43 86 10° 8 - 29.72 - 10 BKN014 OVC019 None
2016-05-05 19:52 47 43 44 86 10° 7 - 29.72 29.72 10 OVC016 6-hr Min Temp (8pm): 46.9°F
6-hr Max Temp (8pm): 51.1°F
2016-05-05 19:35 48 43 44 82 10° 9 - 29.71 - 10 OVC014 None
2016-05-05 18:52 48 42 41 79 20° 13 22 29.71 29.72 10 OVC017 None
2016-05-05 17:52 49 42 45 77 30° 8 - 29.71 29.72 10 OVC017 None
2016-05-05 16:52 50 43 44 76 50° 8 18 29.72 29.73 10 OVC022 None
2016-05-05 15:52 51 42 - 71 40° 12 23 29.72 29.73 10 BKN022 OVC027 None
2016-05-05 14:52 51 43 - 73 30° 7 17 29.73 29.74 10 BKN021 OVC028 None
2016-05-05 13:52 51 42 - 71 40° 12 - 29.74 29.75 10 BKN019 OVC027 6-hr Min Temp (2pm): 44.1°F
6-hr Max Temp (2pm): 51.1°F
2016-05-05 12:52 49 42 43 77 30° 15 - 29.76 29.77 10 OVC018 None
2016-05-05 11:52 49 42 44 77 40° 12 - 29.76 29.77 10 OVC017 None
2016-05-05 10:52 48 42 43 79 20° 12 - 29.77 29.78 10 OVC017 None
2016-05-05 10:40 47 42 39 83 50° 12 21 29.78 - 10 OVC015 None
2016-05-05 10:10 47 42 40 83 30° 10 17 29.77 - 10 OVC014 None
2016-05-05 10:00 47 41 42 79 20° 10 - 29.77 - 10 OVC015 None
2016-05-05 09:52 47 41 43 79 30° 8 - 29.78 29.79 10 OVC014 None
2016-05-05 08:52 45 41 41 85 20° 7 - 29.77 29.78 10 OVC012 None
2016-05-05 07:52 44 40 40 85 20° 8 - 29.77 29.78 10 OVC012 24-hr Precip Total (8am): 0.07"
6-hr Min Temp (8am): 42.1°F
6-hr Max Temp (8am): 44.1°F
2016-05-05 06:52 43 39 38 85 360° 8 - 29.75 29.75 10 OVC012 None
2016-05-05 05:52 42 39 37 88 360° 8 - 29.76 29.77 10 OVC013 None
2016-05-05 04:52 42 39 39 88 350° 5 - 29.77 29.78 10 OVC011 None
2016-05-05 04:00 42 39 38 88 350° 7 - 29.76 - 10 OVC010 None
2016-05-05 03:52 42 39 37 88 350° 8 - 29.76 29.77 10 OVC009 None
2016-05-05 03:47 43 39 38 86 360° 8 - 29.77 - 10 OVC009 None

Support USWX by starting your Amazon purchase here.